createdAt,value
2019-05-14T00:02:21.553Z,2.20
2019-05-14T00:04:51.343Z,2.40
2019-05-14T00:07:24.375Z,2.03
2019-05-14T00:09:54.122Z,2.03
2019-05-14T00:12:26.211Z,2.23
2019-05-14T00:15:02.066Z,2.40
2019-05-14T00:17:31.925Z,2.40
2019-05-14T00:20:09.009Z,2.27
2019-05-14T00:22:32.271Z,2.37
2019-05-14T00:25:02.713Z,2.40
2019-05-14T00:27:32.228Z,2.47
2019-05-14T00:30:03.017Z,2.33
2019-05-14T00:32:32.218Z,2.20
2019-05-14T00:35:02.146Z,2.53
2019-05-14T00:37:32.150Z,2.50
2019-05-14T00:40:01.647Z,2.37
2019-05-14T00:42:32.656Z,2.30
2019-05-14T00:45:02.586Z,2.47
2019-05-14T00:47:32.097Z,2.33
2019-05-14T00:50:02.241Z,2.13
2019-05-14T00:52:31.708Z,2.60
2019-05-14T00:55:01.202Z,2.60
2019-05-14T00:57:32.430Z,2.67
2019-05-14T01:00:01.654Z,2.60
2019-05-14T01:02:31.917Z,2.73
2019-05-14T01:05:01.889Z,2.80
2019-05-14T01:07:32.246Z,3.10
2019-05-14T01:10:04.084Z,3.23
2019-05-14T01:12:36.926Z,2.50
2019-05-14T01:15:10.187Z,3.13
2019-05-14T01:17:42.010Z,2.70
2019-05-14T01:20:17.443Z,2.80
2019-05-14T01:22:47.634Z,3.03
2019-05-14T01:25:16.813Z,3.20
2019-05-14T01:27:46.029Z,3.10
2019-05-14T01:30:15.913Z,3.00
2019-05-14T01:32:45.663Z,2.67
2019-05-14T01:35:14.883Z,3.27
2019-05-14T01:37:44.125Z,2.90
2019-05-14T01:40:14.013Z,3.50
2019-05-14T01:42:43.919Z,3.90
2019-05-14T01:45:26.972Z,3.63
2019-05-14T01:47:52.045Z,3.33
2019-05-14T01:50:21.718Z,3.60
2019-05-14T01:52:53.105Z,2.93
2019-05-14T01:55:24.893Z,2.87
2019-05-14T01:57:54.100Z,2.80
2019-05-14T02:00:23.339Z,2.87
2019-05-14T02:02:53.390Z,2.70
2019-05-14T02:05:22.611Z,2.70
2019-05-14T02:07:57.752Z,3.20
2019-05-14T02:10:31.486Z,2.93
2019-05-14T02:13:03.826Z,3.40
2019-05-14T02:15:39.211Z,3.43
2019-05-14T02:18:06.321Z,3.17
2019-05-14T02:20:41.340Z,3.40
2019-05-14T02:23:12.261Z,3.30
2019-05-14T02:25:42.422Z,3.17
2019-05-14T02:28:11.712Z,3.33
2019-05-14T02:30:51.517Z,3.20
2019-05-14T02:33:15.630Z,3.20
2019-05-14T02:35:49.521Z,2.90
2019-05-14T02:38:19.558Z,3.30
2019-05-14T02:40:51.444Z,3.10
2019-05-14T02:43:20.809Z,3.00
2019-05-14T02:46:09.565Z,3.03
2019-05-14T02:48:24.165Z,3.07
2019-05-14T02:50:53.959Z,3.03
2019-05-14T02:53:25.536Z,3.10
2019-05-14T02:55:59.302Z,2.73
2019-05-14T02:58:30.299Z,2.80
2019-05-14T03:01:00.782Z,3.03
2019-05-14T03:03:34.384Z,3.93
2019-05-14T03:06:03.933Z,4.00
2019-05-14T03:08:33.465Z,4.13
2019-05-14T03:11:03.438Z,4.30
2019-05-14T03:13:39.756Z,4.40
2019-05-14T03:16:24.989Z,4.67
2019-05-14T03:18:39.855Z,4.27
2019-05-14T03:21:12.737Z,4.53
2019-05-14T03:23:45.561Z,4.70
2019-05-14T03:26:20.147Z,4.50
2019-05-14T03:28:50.830Z,3.80
2019-05-14T03:31:22.603Z,4.07
2019-05-14T03:33:52.817Z,4.53
2019-05-14T03:36:26.699Z,4.33
2019-05-14T03:38:59.622Z,4.33
2019-05-14T03:41:31.898Z,4.00
2019-05-14T03:44:01.997Z,4.20
2019-05-14T03:46:45.863Z,4.40
2019-05-14T03:49:04.477Z,3.87
2019-05-14T03:51:34.619Z,4.10
2019-05-14T03:54:07.630Z,3.60
2019-05-14T03:56:39.399Z,3.50
2019-05-14T03:59:10.379Z,3.50
2019-05-14T04:01:41.060Z,3.77
2019-05-14T04:04:15.075Z,3.30
2019-05-14T04:06:45.696Z,3.40
2019-05-14T04:09:15.723Z,3.07
2019-05-14T04:11:50.204Z,3.27
2019-05-14T04:14:20.368Z,3.20
2019-05-14T04:17:05.365Z,2.97
2019-05-14T04:19:30.477Z,3.20
2019-05-14T04:22:03.819Z,3.80
2019-05-14T04:24:53.512Z,3.23
2019-05-14T04:27:25.086Z,3.97
2019-05-14T04:30:09.553Z,3.43
2019-05-14T04:32:44.606Z,3.20
2019-05-14T04:35:16.124Z,3.37
2019-05-14T04:37:49.557Z,3.30
2019-05-14T04:40:18.921Z,3.40
2019-05-14T04:42:50.390Z,2.80
2019-05-14T04:45:19.850Z,3.00
2019-05-14T04:47:50.043Z,3.27
2019-05-14T04:50:20.240Z,3.57
2019-05-14T04:52:54.328Z,3.13
2019-05-14T04:55:29.656Z,2.63
2019-05-14T04:57:59.841Z,3.40
2019-05-14T05:00:30.495Z,3.03
2019-05-14T05:03:00.322Z,2.97
2019-05-14T05:05:32.032Z,3.07
2019-05-14T05:08:02.839Z,3.07
2019-05-14T05:10:31.995Z,3.30
2019-05-14T05:13:01.140Z,3.20
2019-05-14T05:15:30.461Z,3.20
2019-05-14T05:18:01.075Z,3.27
2019-05-14T05:20:30.381Z,3.20
2019-05-14T05:22:59.778Z,3.53
2019-05-14T05:25:30.483Z,3.00
2019-05-14T05:27:59.941Z,3.00
2019-05-14T05:30:29.547Z,3.30
2019-05-14T05:33:04.511Z,3.50
2019-05-14T05:35:38.127Z,3.20
2019-05-14T05:38:08.784Z,3.80
2019-05-14T05:40:39.780Z,3.37
2019-05-14T05:43:09.063Z,3.60
2019-05-14T05:45:39.938Z,2.97
2019-05-14T05:48:09.243Z,4.03
2019-05-14T05:50:48.446Z,3.23
2019-05-14T05:53:19.353Z,3.40
2019-05-14T05:55:48.740Z,3.30
2019-05-14T05:58:19.660Z,3.30
2019-05-14T06:00:49.896Z,3.33
2019-05-14T06:03:20.993Z,3.17
2019-05-14T06:05:50.323Z,3.00
2019-05-14T06:08:19.589Z,3.40
2019-05-14T06:10:49.128Z,2.70
2019-05-14T06:13:18.477Z,3.17
2019-05-14T06:15:49.374Z,3.07
2019-05-14T06:18:22.087Z,3.07
2019-05-14T06:20:54.923Z,2.70
2019-05-14T06:23:28.533Z,3.00
2019-05-14T06:26:00.267Z,3.33
2019-05-14T06:28:33.536Z,3.20
2019-05-14T06:31:04.080Z,2.43
2019-05-14T06:33:39.153Z,3.10
2019-05-14T06:36:09.537Z,3.50
2019-05-14T06:38:39.052Z,2.33
2019-05-14T06:41:08.581Z,2.60
2019-05-14T06:43:39.175Z,2.67
2019-05-14T06:46:09.191Z,3.20
2019-05-14T06:48:39.691Z,3.10
2019-05-14T06:51:10.187Z,3.20
2019-05-14T06:53:39.532Z,2.63
2019-05-14T06:56:08.803Z,3.10
2019-05-14T06:58:38.941Z,2.03
2019-05-14T07:01:10.233Z,2.70
2019-05-14T07:03:39.470Z,2.30
2019-05-14T07:06:09.155Z,2.63
2019-05-14T07:08:39.414Z,2.60
2019-05-14T07:11:08.878Z,2.50
2019-05-14T07:13:38.662Z,2.23
2019-05-14T07:16:09.170Z,2.40
2019-05-14T07:18:50.694Z,2.17
2019-05-14T07:21:09.771Z,2.47
2019-05-14T07:23:39.090Z,1.70
2019-05-14T07:26:09.049Z,1.90
2019-05-14T07:28:41.944Z,1.70
2019-05-14T07:31:09.975Z,1.63
2019-05-14T07:33:39.289Z,2.00
2019-05-14T07:36:09.741Z,2.20
2019-05-14T07:38:39.573Z,1.70
2019-05-14T07:41:09.408Z,2.23
2019-05-14T07:43:40.161Z,1.70
2019-05-14T07:46:12.296Z,1.83
2019-05-14T07:48:45.001Z,2.20
2019-05-14T07:51:18.995Z,1.93
2019-05-14T07:53:49.140Z,1.83
2019-05-14T07:56:21.095Z,1.80
2019-05-14T07:58:50.431Z,1.50
2019-05-14T08:01:22.647Z,1.70
2019-05-14T08:03:51.925Z,1.50
2019-05-14T08:06:22.605Z,1.30
2019-05-14T08:08:53.416Z,1.90
2019-05-14T08:11:22.839Z,1.30
2019-05-14T08:13:51.963Z,1.80
2019-05-14T08:16:21.112Z,1.40
2019-05-14T08:18:50.556Z,1.50
2019-05-14T08:21:19.832Z,1.40
2019-05-14T08:23:49.027Z,1.60
2019-05-14T08:26:19.105Z,2.07
2019-05-14T08:28:49.064Z,1.80
2019-05-14T08:31:18.978Z,2.00
2019-05-14T08:33:49.021Z,2.00
2019-05-14T08:36:18.727Z,2.00
2019-05-14T08:38:52.301Z,1.90
2019-05-14T08:41:22.576Z,1.93
2019-05-14T08:43:52.433Z,2.03
2019-05-14T08:46:21.544Z,2.20
2019-05-14T08:48:50.779Z,2.00
2019-05-14T08:51:20.024Z,2.10
2019-05-14T08:53:50.498Z,1.97
2019-05-14T08:56:19.911Z,1.90
2019-05-14T08:58:49.760Z,2.33
2019-05-14T09:01:19.821Z,2.13
2019-05-14T09:03:53.746Z,2.40
2019-05-14T09:06:23.981Z,2.10
2019-05-14T09:08:59.564Z,2.17
2019-05-14T09:11:35.016Z,2.17
2019-05-14T09:14:01.543Z,1.90
2019-05-14T09:16:42.747Z,2.00
2019-05-14T09:19:02.909Z,2.10
2019-05-14T09:21:34.958Z,1.93
2019-05-14T09:24:04.403Z,1.70
2019-05-14T09:26:36.441Z,1.83
2019-05-14T09:29:19.467Z,1.77
2019-05-14T09:31:40.922Z,2.00
2019-05-14T09:34:15.404Z,1.50
2019-05-14T09:36:48.644Z,1.80
2019-05-14T09:39:20.318Z,1.80
2019-05-14T09:41:49.887Z,1.50
2019-05-14T09:44:19.468Z,1.47
2019-05-14T09:46:52.977Z,1.80
2019-05-14T09:49:24.816Z,1.70
2019-05-14T09:51:54.449Z,1.90
2019-05-14T09:54:24.551Z,1.70
2019-05-14T09:56:53.820Z,2.07
2019-05-14T09:59:23.599Z,1.80
2019-05-14T10:01:53.153Z,2.17
2019-05-14T10:04:24.863Z,1.80
2019-05-14T10:06:55.087Z,1.53
2019-05-14T10:09:25.869Z,1.80
2019-05-14T10:11:57.993Z,3.03
2019-05-14T10:14:29.620Z,1.50
2019-05-14T10:17:02.290Z,2.10
2019-05-14T10:19:31.953Z,2.00
2019-05-14T10:22:01.428Z,2.20
2019-05-14T10:24:32.439Z,1.80
2019-05-14T10:27:04.047Z,1.50
2019-05-14T10:29:41.733Z,1.83
2019-05-14T10:32:13.033Z,1.80
2019-05-14T10:34:42.644Z,2.30
2019-05-14T10:37:12.799Z,1.83
2019-05-14T10:39:43.083Z,2.07
2019-05-14T10:42:12.243Z,2.07
2019-05-14T10:44:41.518Z,1.60
2019-05-14T10:47:10.848Z,1.40
2019-05-14T10:49:39.976Z,1.50
2019-05-14T10:52:09.348Z,1.77
2019-05-14T10:54:43.237Z,1.80
2019-05-14T10:57:10.022Z,1.70
2019-05-14T10:59:39.275Z,1.57
2019-05-14T11:02:11.926Z,1.90
2019-05-14T11:04:40.249Z,1.77
2019-05-14T11:07:09.775Z,1.70
2019-05-14T11:09:39.313Z,1.70
2019-05-14T11:12:09.075Z,1.90
2019-05-14T11:14:38.889Z,1.77
2019-05-14T11:17:11.905Z,1.90
2019-05-14T11:19:40.139Z,1.50
2019-05-14T11:22:10.810Z,2.10
2019-05-14T11:24:41.796Z,1.80
2019-05-14T11:27:15.065Z,1.40
2019-05-14T11:29:49.132Z,1.90
2019-05-14T11:32:23.793Z,2.00
2019-05-14T11:34:55.238Z,1.70
2019-05-14T11:37:25.287Z,1.93
2019-05-14T11:39:54.753Z,2.30
2019-05-14T11:42:25.905Z,2.00
2019-05-14T11:44:58.271Z,2.10
2019-05-14T11:47:31.453Z,2.23
2019-05-14T11:50:02.630Z,1.70
2019-05-14T11:52:32.744Z,2.00
2019-05-14T11:55:09.261Z,2.03
2019-05-14T11:57:42.720Z,2.07
2019-05-14T12:00:19.518Z,2.20
2019-05-14T12:02:54.679Z,2.27
2019-05-14T12:05:24.245Z,2.13
2019-05-14T12:07:54.008Z,2.00
2019-05-14T12:10:24.320Z,1.93
2019-05-14T12:13:01.045Z,1.97
2019-05-14T12:15:35.631Z,2.30
2019-05-14T12:18:11.381Z,2.40
2019-05-14T12:20:43.871Z,2.20
2019-05-14T12:23:19.178Z,2.40
2019-05-14T12:25:50.421Z,2.43
2019-05-14T12:28:20.938Z,2.20
2019-05-14T12:30:52.844Z,2.17
2019-05-14T12:33:22.044Z,2.27
2019-05-14T12:35:53.999Z,1.90
2019-05-14T12:38:24.479Z,2.50
2019-05-14T12:40:54.996Z,2.40
2019-05-14T12:43:30.289Z,2.20
2019-05-14T12:46:03.816Z,2.30
2019-05-14T12:48:33.416Z,2.23
2019-05-14T12:51:04.812Z,2.63
2019-05-14T12:53:35.020Z,1.87
2019-05-14T12:59:31.510Z,2.17
2019-05-14T13:02:09.170Z,2.20
2019-05-14T13:04:48.576Z,2.20
2019-05-14T13:07:12.847Z,2.83
2019-05-14T13:09:44.853Z,2.40
2019-05-14T13:12:14.520Z,2.70
2019-05-14T13:14:48.655Z,2.37
2019-05-14T13:17:18.774Z,2.30
2019-05-14T13:19:48.882Z,1.70
2019-05-14T13:22:36.453Z,2.20
2019-05-14T13:24:50.824Z,2.10
2019-05-14T13:27:28.762Z,2.20
2019-05-14T13:30:05.067Z,1.97
2019-05-14T13:32:39.079Z,1.97
2019-05-14T13:35:13.748Z,1.73
2019-05-14T13:40:36.163Z,2.07
2019-05-14T13:43:05.527Z,2.03
2019-05-14T13:45:34.788Z,2.10
2019-05-14T13:48:08.471Z,2.27
2019-05-14T13:50:40.090Z,1.60
2019-05-14T13:53:12.998Z,2.40
2019-05-14T13:55:48.232Z,2.50
2019-05-14T13:58:15.993Z,2.17
2019-05-14T14:00:45.342Z,2.13
2019-05-14T14:03:14.515Z,2.60
2019-05-14T14:05:44.301Z,2.37
2019-05-14T14:08:13.581Z,3.03
2019-05-14T14:10:52.255Z,2.40
2019-05-14T14:13:22.913Z,2.73
2019-05-14T14:16:00.019Z,2.40
2019-05-14T14:18:30.178Z,2.53
2019-05-14T14:20:59.405Z,2.90
2019-05-14T14:23:31.299Z,2.87
2019-05-14T14:26:00.691Z,2.70
2019-05-14T14:28:35.476Z,2.97
2019-05-14T14:31:07.454Z,2.50
2019-05-14T14:33:41.809Z,2.50
2019-05-14T14:36:14.166Z,2.43
2019-05-14T14:38:45.900Z,2.57
2019-05-14T14:41:15.060Z,2.50
2019-05-14T14:43:52.040Z,2.40
2019-05-14T14:46:19.607Z,2.07
2019-05-14T14:48:49.396Z,2.97
2019-05-14T14:51:19.674Z,2.80
2019-05-14T14:53:59.383Z,2.53
2019-05-14T14:56:20.293Z,2.50
2019-05-14T14:58:55.427Z,2.27
2019-05-14T15:01:30.276Z,2.33
2019-05-14T15:04:12.875Z,3.00
2019-05-14T15:06:45.203Z,2.60
2019-05-14T15:09:14.698Z,2.87
2019-05-14T15:11:49.274Z,3.10
2019-05-14T15:14:23.534Z,3.07
2019-05-14T15:16:56.086Z,3.00
2019-05-14T15:19:29.549Z,3.03
2019-05-14T15:22:00.241Z,3.07
2019-05-14T15:24:31.847Z,2.40
2019-05-14T15:27:09.213Z,3.00
2019-05-14T15:29:42.971Z,2.60
2019-05-14T15:32:13.791Z,2.70
2019-05-14T15:34:42.796Z,2.80
2019-05-14T15:37:12.201Z,3.13
2019-05-14T15:39:43.485Z,2.67
2019-05-14T15:42:14.038Z,2.90
2019-05-14T15:44:52.015Z,2.77
2019-05-14T15:47:15.268Z,2.50
2019-05-14T15:49:44.586Z,4.60
2019-05-14T15:52:15.448Z,3.27
2019-05-14T15:54:47.347Z,3.07
2019-05-14T15:57:18.973Z,2.50
2019-05-14T15:59:48.805Z,2.70
2019-05-14T16:02:20.226Z,2.67
2019-05-14T16:04:51.964Z,2.43
2019-05-14T16:07:22.480Z,2.97
2019-05-14T16:09:54.178Z,2.33
2019-05-14T16:12:25.370Z,2.80
2019-05-14T16:14:54.881Z,2.73
2019-05-14T16:17:26.205Z,2.30
2019-05-14T16:19:55.143Z,2.87
2019-05-14T16:22:24.392Z,3.23
2019-05-14T16:24:57.109Z,2.90
2019-05-14T16:27:29.724Z,2.67
2019-05-14T16:30:01.482Z,3.43
2019-05-14T16:32:33.757Z,2.97
2019-05-14T16:35:10.119Z,2.43
2019-05-14T16:37:39.523Z,2.60
2019-05-14T16:40:09.935Z,2.90
2019-05-14T16:42:39.894Z,3.23
2019-05-14T16:45:09.968Z,2.50
2019-05-14T16:47:40.023Z,2.57
2019-05-14T16:50:11.352Z,3.40
2019-05-14T16:52:42.380Z,3.00
2019-05-14T16:55:23.533Z,2.70
2019-05-14T16:57:49.306Z,2.80
2019-05-14T17:00:23.783Z,3.27
2019-05-14T17:02:55.936Z,2.80
2019-05-14T17:05:30.173Z,3.17
2019-05-14T17:08:04.418Z,2.90
2019-05-14T17:10:35.619Z,3.10
2019-05-14T17:13:09.320Z,2.87
2019-05-14T17:15:39.439Z,2.85
2019-05-14T17:18:13.115Z,3.30
2019-05-14T17:28:10.849Z,3.13
2019-05-14T17:30:40.050Z,3.13
2019-05-14T17:33:11.449Z,2.40
2019-05-14T17:35:40.735Z,3.00
2019-05-14T17:38:11.401Z,2.80
2019-05-14T17:40:42.735Z,2.40
2019-05-14T17:43:13.119Z,3.33
2019-05-14T17:45:48.219Z,2.97
2019-05-14T17:48:19.855Z,2.80
2019-05-14T17:50:50.363Z,2.87
2019-05-14T17:53:20.507Z,2.97
2019-05-14T17:55:52.297Z,2.40
2019-05-14T17:58:29.507Z,2.70
2019-05-14T18:01:00.705Z,2.60
2019-05-14T18:03:31.114Z,2.83
2019-05-14T18:06:00.274Z,2.87
2019-05-14T18:09:03.017Z,2.50
2019-05-14T18:15:22.320Z,2.50
2019-05-14T18:17:52.922Z,2.57
2019-05-14T18:20:23.544Z,2.70
2019-05-14T18:22:53.004Z,2.57
2019-05-14T18:25:22.160Z,2.90
2019-05-14T18:27:52.857Z,2.50
2019-05-14T18:30:22.032Z,3.00
2019-05-14T18:33:04.750Z,2.30
2019-05-14T18:35:45.431Z,2.57
2019-05-14T18:38:12.009Z,2.23
2019-05-14T18:40:44.771Z,2.60
2019-05-14T18:43:15.309Z,2.90
2019-05-14T18:45:44.532Z,2.57
2019-05-14T18:48:16.204Z,2.70
2019-05-14T18:50:45.385Z,2.73
2019-05-14T18:53:14.587Z,2.00
2019-05-14T18:55:43.875Z,2.43
2019-05-14T18:58:15.146Z,2.47
2019-05-14T19:00:44.517Z,2.30
2019-05-14T19:03:13.867Z,2.57
2019-05-14T19:05:43.011Z,2.40
2019-05-14T19:08:13.697Z,4.07
2019-05-14T19:10:43.059Z,2.63
2019-05-14T19:13:13.000Z,3.30
2019-05-14T19:15:42.145Z,2.97
2019-05-14T19:18:11.567Z,2.33
2019-05-14T19:20:40.901Z,2.50
2019-05-14T19:23:10.718Z,2.70
2019-05-14T19:25:40.518Z,2.30
2019-05-14T19:28:15.001Z,2.63
2019-05-14T19:30:49.238Z,2.70
2019-05-14T19:33:20.596Z,2.40
2019-05-14T19:35:52.032Z,2.70
2019-05-14T19:38:21.500Z,2.27
2019-05-14T19:40:50.652Z,2.90
2019-05-14T19:43:20.278Z,3.03
2019-05-14T19:45:49.543Z,2.83
2019-05-14T19:48:20.129Z,2.70
2019-05-14T19:50:49.444Z,2.60
2019-05-14T19:53:18.627Z,2.53
2019-05-14T19:55:49.526Z,2.90
2019-05-14T19:58:20.756Z,2.80
2019-05-14T20:00:50.165Z,2.93
2019-05-14T20:03:21.374Z,3.00
2019-05-14T20:05:51.874Z,2.90
2019-05-14T20:08:21.181Z,2.97
2019-05-14T20:10:54.241Z,3.23
2019-05-14T20:13:28.862Z,2.63
2019-05-14T20:16:00.217Z,3.00
2019-05-14T20:18:29.524Z,3.33
2019-05-14T20:20:59.252Z,2.80
2019-05-14T20:23:35.882Z,3.10
2019-05-14T20:26:08.605Z,3.00
2019-05-14T20:28:39.047Z,3.10
2019-05-14T20:31:10.642Z,3.63
2019-05-14T20:33:41.401Z,3.63
2019-05-14T20:36:10.913Z,3.80
2019-05-14T20:38:43.101Z,3.63
2019-05-14T20:41:12.950Z,3.90
2019-05-14T20:43:43.459Z,3.70
2019-05-14T20:46:13.880Z,3.70
2019-05-14T20:48:43.593Z,4.10
2019-05-14T20:51:12.814Z,3.70
2019-05-14T20:53:42.020Z,3.70
2019-05-14T20:56:11.634Z,3.83
2019-05-14T20:58:40.957Z,4.23
2019-05-14T21:01:11.410Z,4.67
2019-05-14T21:03:43.880Z,4.37
2019-05-14T21:06:15.460Z,4.50
2019-05-14T21:08:50.702Z,4.33
2019-05-14T21:11:20.075Z,4.60
2019-05-14T21:13:54.450Z,4.60
2019-05-14T21:16:23.691Z,5.40
2019-05-14T21:18:55.838Z,4.50
2019-05-14T21:21:25.128Z,4.23
2019-05-14T21:23:54.392Z,4.90
2019-05-14T21:26:23.678Z,3.90
2019-05-14T21:28:53.083Z,4.87
2019-05-14T21:31:22.731Z,4.37
2019-05-14T21:33:54.438Z,4.40
2019-05-14T21:36:24.931Z,4.80
2019-05-14T21:38:55.571Z,4.20
2019-05-14T21:41:25.239Z,4.20
2019-05-14T21:43:54.830Z,4.70
2019-05-14T21:46:31.375Z,4.10
2019-05-14T21:48:58.512Z,3.90
2019-05-14T21:51:29.508Z,4.10
2019-05-14T21:53:58.911Z,4.03
2019-05-14T21:56:29.268Z,3.63
2019-05-14T21:59:01.403Z,4.00
2019-05-14T22:01:31.212Z,4.03
2019-05-14T22:04:01.276Z,4.00
2019-05-14T22:06:30.629Z,3.63
2019-05-14T22:08:59.897Z,3.90
2019-05-14T22:11:29.535Z,3.73
2019-05-14T22:13:59.767Z,3.90
2019-05-14T22:16:30.134Z,3.80
2019-05-14T22:18:59.524Z,4.00
2019-05-14T22:21:29.648Z,4.00
2019-05-14T22:23:59.030Z,3.40
2019-05-14T22:26:28.504Z,3.47
2019-05-14T22:28:58.691Z,4.03
2019-05-14T22:31:29.145Z,4.23
2019-05-14T22:33:58.443Z,4.40
2019-05-14T22:36:29.814Z,4.20
2019-05-14T22:38:59.476Z,3.73
2019-05-14T22:41:31.912Z,3.87
2019-05-14T22:44:01.193Z,3.90
2019-05-14T22:46:31.603Z,4.00
2019-05-14T22:49:01.288Z,4.20
2019-05-14T22:51:38.180Z,3.90
2019-05-14T22:54:17.745Z,3.83
2019-05-14T22:56:48.226Z,4.20
2019-05-14T22:59:20.378Z,4.27
2019-05-14T23:01:52.558Z,3.80
2019-05-14T23:04:21.806Z,3.73
2019-05-14T23:06:53.471Z,3.77
2019-05-14T23:09:23.707Z,4.20
2019-05-14T23:11:54.830Z,4.10
2019-05-14T23:14:28.079Z,3.90
2019-05-14T23:16:56.705Z,4.10
2019-05-14T23:19:26.262Z,3.93
2019-05-14T23:21:58.114Z,3.97
2019-05-14T23:24:28.464Z,4.40
2019-05-14T23:26:58.497Z,3.87
2019-05-14T23:29:31.033Z,4.33
2019-05-14T23:32:01.815Z,4.10
2019-05-14T23:34:32.320Z,4.40
2019-05-14T23:37:08.234Z,4.03
2019-05-14T23:39:38.377Z,4.17
2019-05-14T23:42:09.344Z,4.40
2019-05-14T23:44:38.720Z,4.20
2019-05-14T23:47:08.442Z,3.40
2019-05-14T23:49:39.087Z,4.47
2019-05-14T23:52:14.348Z,4.23
2019-05-14T23:54:43.596Z,4.70
2019-05-14T23:57:13.286Z,4.40
2019-05-14T23:59:43.640Z,4.10
